sensor_id;sensor_type;location;lat;lon;timestamp;pressure;altitude;pressure_sealevel;temperature;humidity
23419;BME280;11882;42.522;27.458;2022-12-29T00:01:26;102548.03;;;5.87;80.31
23419;BME280;11882;42.522;27.458;2022-12-29T00:03:53;102541.75;;;5.89;80.98
23419;BME280;11882;42.522;27.458;2022-12-29T00:06:19;102545.72;;;5.82;80.42
23419;BME280;11882;42.522;27.458;2022-12-29T00:08:46;102553.75;;;5.80;81.11
23419;BME280;11882;42.522;27.458;2022-12-29T00:11:14;102549.84;;;5.86;80.91
23419;BME280;11882;42.522;27.458;2022-12-29T00:13:41;102545.06;;;5.78;81.04
23419;BME280;11882;42.522;27.458;2022-12-29T00:16:27;102532.72;;;5.79;80.56
23419;BME280;11882;42.522;27.458;2022-12-29T00:18:55;102536.25;;;5.65;80.81
23419;BME280;11882;42.522;27.458;2022-12-29T00:21:22;102536.81;;;5.70;81.06
23419;BME280;11882;42.522;27.458;2022-12-29T00:24:08;102528.44;;;5.64;81.15
23419;BME280;11882;42.522;27.458;2022-12-29T00:26:53;102518.97;;;5.74;81.21
23419;BME280;11882;42.522;27.458;2022-12-29T00:29:38;102520.34;;;6.32;84.16
23419;BME280;11882;42.522;27.458;2022-12-29T00:32:23;102521.94;;;5.82;81.93
23419;BME280;11882;42.522;27.458;2022-12-29T00:35:11;102530.38;;;5.74;81.14
23419;BME280;11882;42.522;27.458;2022-12-29T00:37:40;102522.56;;;5.73;81.23
23419;BME280;11882;42.522;27.458;2022-12-29T00:40:25;102536.19;;;5.79;80.93
23419;BME280;11882;42.522;27.458;2022-12-29T00:43:09;102528.34;;;5.65;80.22
23419;BME280;11882;42.522;27.458;2022-12-29T00:45:53;102533.63;;;5.65;80.82
23419;BME280;11882;42.522;27.458;2022-12-29T00:48:21;102533.63;;;5.65;81.52
23419;BME280;11882;42.522;27.458;2022-12-29T00:51:02;102529.50;;;5.61;81.47
23419;BME280;11882;42.522;27.458;2022-12-29T00:53:28;102534.78;;;5.61;81.79
23419;BME280;11882;42.522;27.458;2022-12-29T00:55:55;102528.13;;;5.68;81.21
23419;BME280;11882;42.522;27.458;2022-12-29T00:58:22;102516.28;;;5.61;81.97
23419;BME280;11882;42.522;27.458;2022-12-29T01:00:49;102518.13;;;5.73;81.43
23419;BME280;11882;42.522;27.458;2022-12-29T01:03:15;102522.22;;;5.65;81.69
23419;BME280;11882;42.522;27.458;2022-12-29T01:05:43;102518.47;;;5.55;82.55
23419;BME280;11882;42.522;27.458;2022-12-29T01:08:10;102517.53;;;5.56;82.01
23419;BME280;11882;42.522;27.458;2022-12-29T01:10:37;102523.66;;;5.56;82.93
23419;BME280;11882;42.522;27.458;2022-12-29T01:13:03;102515.47;;;5.73;82.39
23419;BME280;11882;42.522;27.458;2022-12-29T01:15:29;102514.91;;;5.56;82.37
23419;BME280;11882;42.522;27.458;2022-12-29T01:17:56;102514.69;;;5.59;83.05
23419;BME280;11882;42.522;27.458;2022-12-29T01:20:23;102507.78;;;5.43;83.23
23419;BME280;11882;42.522;27.458;2022-12-29T01:22:51;102495.88;;;5.50;82.59
23419;BME280;11882;42.522;27.458;2022-12-29T01:25:18;102500.63;;;5.58;82.68
23419;BME280;11882;42.522;27.458;2022-12-29T01:27:44;102502.75;;;5.53;82.78
23419;BME280;11882;42.522;27.458;2022-12-29T01:30:11;102494.88;;;5.39;82.24
23419;BME280;11882;42.522;27.458;2022-12-29T01:32:38;102484.63;;;5.34;82.84
23419;BME280;11882;42.522;27.458;2022-12-29T01:35:05;102485.41;;;5.22;82.30
23419;BME280;11882;42.522;27.458;2022-12-29T01:37:32;102485.91;;;5.41;82.16
23419;BME280;11882;42.522;27.458;2022-12-29T01:40:00;102481.69;;;5.39;81.27
23419;BME280;11882;42.522;27.458;2022-12-29T01:42:27;102484.72;;;5.33;82.07
23419;BME280;11882;42.522;27.458;2022-12-29T01:44:54;102478.59;;;5.32;81.69
23419;BME280;11882;42.522;27.458;2022-12-29T01:47:24;102472.47;;;5.32;81.65
23419;BME280;11882;42.522;27.458;2022-12-29T01:49:52;102469.47;;;5.50;82.02
23419;BME280;11882;42.522;27.458;2022-12-29T01:52:19;102476.34;;;5.26;81.85
23419;BME280;11882;42.522;27.458;2022-12-29T01:54:47;102468.91;;;5.45;81.64
23419;BME280;11882;42.522;27.458;2022-12-29T01:57:19;102479.47;;;5.45;80.74
23419;BME280;11882;42.522;27.458;2022-12-29T01:59:48;102473.59;;;5.55;80.78
23419;BME280;11882;42.522;27.458;2022-12-29T02:02:17;102476.09;;;5.43;80.59
23419;BME280;11882;42.522;27.458;2022-12-29T02:04:44;102471.31;;;5.36;81.84
23419;BME280;11882;42.522;27.458;2022-12-29T02:07:13;102475.06;;;5.46;81.22
23419;BME280;11882;42.522;27.458;2022-12-29T02:09:40;102473.84;;;5.37;81.66
23419;BME280;11882;42.522;27.458;2022-12-29T02:12:07;102456.22;;;5.38;81.57
23419;BME280;11882;42.522;27.458;2022-12-29T02:14:35;102451.78;;;5.38;81.85
23419;BME280;11882;42.522;27.458;2022-12-29T02:17:05;102448.22;;;5.39;80.78
23419;BME280;11882;42.522;27.458;2022-12-29T02:22:22;102447.16;;;5.42;81.01
23419;BME280;11882;42.522;27.458;2022-12-29T02:25:00;102454.13;;;5.43;81.27
23419;BME280;11882;42.522;27.458;2022-12-29T02:27:38;102456.19;;;5.25;81.01
23419;BME280;11882;42.522;27.458;2022-12-29T02:32:54;102438.25;;;5.30;81.03
23419;BME280;11882;42.522;27.458;2022-12-29T02:35:25;102448.84;;;5.16;81.35
23419;BME280;11882;42.522;27.458;2022-12-29T02:37:58;102444.72;;;5.12;81.90
23419;BME280;11882;42.522;27.458;2022-12-29T02:40:27;102439.97;;;5.17;81.42
23419;BME280;11882;42.522;27.458;2022-12-29T02:43:01;102437.16;;;5.20;81.73
23419;BME280;11882;42.522;27.458;2022-12-29T02:45:31;102446.94;;;5.18;80.76
23419;BME280;11882;42.522;27.458;2022-12-29T02:48:04;102433.22;;;5.13;81.47
23419;BME280;11882;42.522;27.458;2022-12-29T02:50:35;102433.81;;;5.04;82.21
23419;BME280;11882;42.522;27.458;2022-12-29T02:53:04;102432.66;;;5.08;81.09
23419;BME280;11882;42.522;27.458;2022-12-29T02:55:31;102429.97;;;5.49;80.37
23419;BME280;11882;42.522;27.458;2022-12-29T02:58:11;102425.38;;;5.26;80.89
23419;BME280;11882;42.522;27.458;2022-12-29T03:00:43;102439.03;;;5.18;80.53
23419;BME280;11882;42.522;27.458;2022-12-29T03:03:17;102431.81;;;5.07;81.30
23419;BME280;11882;42.522;27.458;2022-12-29T03:06:01;102440.06;;;5.15;81.29
23419;BME280;11882;42.522;27.458;2022-12-29T03:08:33;102445.50;;;5.00;81.73
23419;BME280;11882;42.522;27.458;2022-12-29T03:11:04;102447.44;;;5.10;82.06
23419;BME280;11882;42.522;27.458;2022-12-29T03:13:52;102448.38;;;5.09;81.85
23419;BME280;11882;42.522;27.458;2022-12-29T03:16:40;102444.03;;;5.23;81.35
23419;BME280;11882;42.522;27.458;2022-12-29T03:19:13;102441.31;;;5.10;81.42
23419;BME280;11882;42.522;27.458;2022-12-29T03:21:43;102432.06;;;5.17;81.47
23419;BME280;11882;42.522;27.458;2022-12-29T03:24:31;102434.03;;;5.28;81.19
23419;BME280;11882;42.522;27.458;2022-12-29T03:26:59;102438.78;;;5.08;82.26
23419;BME280;11882;42.522;27.458;2022-12-29T03:29:28;102438.38;;;5.14;81.67
23419;BME280;11882;42.522;27.458;2022-12-29T03:31:56;102434.09;;;4.99;82.92
23419;BME280;11882;42.522;27.458;2022-12-29T03:34:25;102437.63;;;4.85;83.46
23419;BME280;11882;42.522;27.458;2022-12-29T03:36:53;102438.09;;;4.92;82.53
23419;BME280;11882;42.522;27.458;2022-12-29T03:39:21;102437.84;;;5.09;82.49
23419;BME280;11882;42.522;27.458;2022-12-29T03:41:48;102444.00;;;4.96;81.97
23419;BME280;11882;42.522;27.458;2022-12-29T03:44:17;102452.59;;;5.26;80.80
23419;BME280;11882;42.522;27.458;2022-12-29T03:46:43;102453.97;;;5.05;80.60
23419;BME280;11882;42.522;27.458;2022-12-29T03:49:10;102444.47;;;5.02;80.58
23419;BME280;11882;42.522;27.458;2022-12-29T03:51:38;102451.16;;;4.94;81.34
23419;BME280;11882;42.522;27.458;2022-12-29T03:54:05;102453.75;;;4.81;82.02
23419;BME280;11882;42.522;27.458;2022-12-29T03:56:32;102455.25;;;4.85;81.77
23419;BME280;11882;42.522;27.458;2022-12-29T03:58:58;102453.16;;;4.90;81.39
23419;BME280;11882;42.522;27.458;2022-12-29T04:01:25;102458.69;;;4.59;82.41
23419;BME280;11882;42.522;27.458;2022-12-29T04:03:52;102458.47;;;4.76;82.11
23419;BME280;11882;42.522;27.458;2022-12-29T04:06:18;102457.63;;;4.61;82.69
23419;BME280;11882;42.522;27.458;2022-12-29T04:08:47;102455.06;;;4.74;82.65
23419;BME280;11882;42.522;27.458;2022-12-29T04:11:13;102460.66;;;4.55;83.68
23419;BME280;11882;42.522;27.458;2022-12-29T04:13:40;102452.53;;;4.72;82.92
23419;BME280;11882;42.522;27.458;2022-12-29T04:16:07;102451.94;;;4.81;81.66
23419;BME280;11882;42.522;27.458;2022-12-29T04:18:34;102457.84;;;4.58;83.46
23419;BME280;11882;42.522;27.458;2022-12-29T04:21:01;102457.59;;;4.90;83.12
23419;BME280;11882;42.522;27.458;2022-12-29T04:23:28;102449.97;;;4.85;83.39
23419;BME280;11882;42.522;27.458;2022-12-29T04:25:57;102450.81;;;4.85;83.63
23419;BME280;11882;42.522;27.458;2022-12-29T04:28:24;102466.00;;;5.09;82.84
23419;BME280;11882;42.522;27.458;2022-12-29T04:30:50;102463.06;;;5.28;82.81
23419;BME280;11882;42.522;27.458;2022-12-29T04:33:17;102473.31;;;5.32;82.25
23419;BME280;11882;42.522;27.458;2022-12-29T04:35:44;102463.53;;;4.79;83.47
23419;BME280;11882;42.522;27.458;2022-12-29T04:38:11;102455.56;;;4.66;84.60
23419;BME280;11882;42.522;27.458;2022-12-29T04:40:38;102461.28;;;4.73;84.67
23419;BME280;11882;42.522;27.458;2022-12-29T04:43:07;102469.56;;;4.81;83.92
23419;BME280;11882;42.522;27.458;2022-12-29T04:45:35;102460.91;;;4.79;84.04
23419;BME280;11882;42.522;27.458;2022-12-29T04:48:01;102464.66;;;5.16;83.34
23419;BME280;11882;42.522;27.458;2022-12-29T04:50:28;102458.88;;;4.97;82.83
23419;BME280;11882;42.522;27.458;2022-12-29T04:52:55;102470.69;;;4.91;83.67
23419;BME280;11882;42.522;27.458;2022-12-29T04:55:22;102478.44;;;4.66;83.87
23419;BME280;11882;42.522;27.458;2022-12-29T04:57:49;102468.06;;;4.77;84.60
23419;BME280;11882;42.522;27.458;2022-12-29T05:00:17;102476.56;;;4.68;84.21
23419;BME280;11882;42.522;27.458;2022-12-29T05:02:44;102482.03;;;4.65;84.96
23419;BME280;11882;42.522;27.458;2022-12-29T05:05:10;102478.25;;;4.69;84.88
23419;BME280;11882;42.522;27.458;2022-12-29T05:07:37;102478.63;;;4.63;85.11
23419;BME280;11882;42.522;27.458;2022-12-29T05:10:05;102477.41;;;4.68;84.27
23419;BME280;11882;42.522;27.458;2022-12-29T05:12:32;102475.41;;;4.72;83.86
23419;BME280;11882;42.522;27.458;2022-12-29T05:14:59;102475.31;;;4.73;83.90
23419;BME280;11882;42.522;27.458;2022-12-29T05:20:31;102480.91;;;4.54;83.92
23419;BME280;11882;42.522;27.458;2022-12-29T05:22:58;102483.06;;;4.62;84.61
23419;BME280;11882;42.522;27.458;2022-12-29T05:25:24;102488.16;;;4.65;83.75
23419;BME280;11882;42.522;27.458;2022-12-29T05:27:51;102497.47;;;4.71;84.26
23419;BME280;11882;42.522;27.458;2022-12-29T05:30:18;102491.25;;;4.58;84.57
23419;BME280;11882;42.522;27.458;2022-12-29T05:32:45;102493.13;;;4.70;83.87
23419;BME280;11882;42.522;27.458;2022-12-29T05:35:11;102486.91;;;4.71;84.92
23419;BME280;11882;42.522;27.458;2022-12-29T05:37:40;102479.09;;;4.69;84.39
23419;BME280;11882;42.522;27.458;2022-12-29T05:40:07;102485.13;;;4.71;84.07
23419;BME280;11882;42.522;27.458;2022-12-29T05:42:34;102489.44;;;4.72;84.88
23419;BME280;11882;42.522;27.458;2022-12-29T05:45:00;102487.19;;;4.66;85.11
23419;BME280;11882;42.522;27.458;2022-12-29T05:47:27;102490.03;;;4.63;85.34
23419;BME280;11882;42.522;27.458;2022-12-29T05:49:54;102484.66;;;4.65;84.87
23419;BME280;11882;42.522;27.458;2022-12-29T05:55:09;102483.81;;;4.64;85.14
23419;BME280;11882;42.522;27.458;2022-12-29T05:57:35;102483.91;;;4.63;86.03
23419;BME280;11882;42.522;27.458;2022-12-29T06:00:02;102483.03;;;4.76;86.10
23419;BME280;11882;42.522;27.458;2022-12-29T06:02:29;102493.97;;;4.84;84.97
23419;BME280;11882;42.522;27.458;2022-12-29T06:04:56;102496.31;;;4.89;85.33
23419;BME280;11882;42.522;27.458;2022-12-29T06:07:23;102499.06;;;4.73;85.61
23419;BME280;11882;42.522;27.458;2022-12-29T06:09:50;102500.47;;;4.79;85.68
23419;BME280;11882;42.522;27.458;2022-12-29T06:12:18;102503.00;;;4.80;86.01
23419;BME280;11882;42.522;27.458;2022-12-29T06:14:45;102501.47;;;4.91;85.53
23419;BME280;11882;42.522;27.458;2022-12-29T06:17:11;102502.63;;;4.72;84.79
23419;BME280;11882;42.522;27.458;2022-12-29T06:19:38;102497.06;;;4.77;85.39
23419;BME280;11882;42.522;27.458;2022-12-29T06:22:05;102504.31;;;4.88;85.39
23419;BME280;11882;42.522;27.458;2022-12-29T06:24:32;102505.28;;;4.72;85.53
23419;BME280;11882;42.522;27.458;2022-12-29T06:26:59;102505.72;;;4.93;84.99
23419;BME280;11882;42.522;27.458;2022-12-29T06:29:27;102514.75;;;5.03;84.67
23419;BME280;11882;42.522;27.458;2022-12-29T06:31:54;102510.38;;;5.16;83.71
23419;BME280;11882;42.522;27.458;2022-12-29T06:34:23;102509.72;;;5.13;84.93
23419;BME280;11882;42.522;27.458;2022-12-29T06:36:49;102507.63;;;5.18;84.31
23419;BME280;11882;42.522;27.458;2022-12-29T06:39:16;102510.56;;;5.13;85.26
23419;BME280;11882;42.522;27.458;2022-12-29T06:41:43;102511.91;;;5.21;85.01
23419;BME280;11882;42.522;27.458;2022-12-29T06:44:10;102502.00;;;5.24;83.81
23419;BME280;11882;42.522;27.458;2022-12-29T06:46:38;102505.78;;;5.47;84.10
23419;BME280;11882;42.522;27.458;2022-12-29T06:49:05;102514.94;;;5.41;84.31
23419;BME280;11882;42.522;27.458;2022-12-29T06:51:31;102515.88;;;5.67;83.71
23419;BME280;11882;42.522;27.458;2022-12-29T06:53:58;102519.25;;;5.69;83.47
23419;BME280;11882;42.522;27.458;2022-12-29T06:56:25;102523.00;;;5.79;83.15
23419;BME280;11882;42.522;27.458;2022-12-29T06:58:51;102520.50;;;5.64;83.97
23419;BME280;11882;42.522;27.458;2022-12-29T07:01:18;102522.47;;;5.47;83.96
23419;BME280;11882;42.522;27.458;2022-12-29T07:03:46;102519.09;;;5.85;82.95
23419;BME280;11882;42.522;27.458;2022-12-29T07:06:13;102519.59;;;5.38;84.23
23419;BME280;11882;42.522;27.458;2022-12-29T07:08:40;102520.38;;;5.53;85.11
23419;BME280;11882;42.522;27.458;2022-12-29T07:11:06;102518.13;;;5.46;84.22
23419;BME280;11882;42.522;27.458;2022-12-29T07:13:33;102522.41;;;5.62;84.78
23419;BME280;11882;42.522;27.458;2022-12-29T07:16:04;102522.53;;;6.00;83.71
23419;BME280;11882;42.522;27.458;2022-12-29T07:18:31;102526.13;;;6.11;83.17
23419;BME280;11882;42.522;27.458;2022-12-29T07:20:59;102527.75;;;6.27;83.31
23419;BME280;11882;42.522;27.458;2022-12-29T07:23:26;102513.88;;;6.36;82.92
23419;BME280;11882;42.522;27.458;2022-12-29T07:25:58;102522.44;;;6.65;81.72
23419;BME280;11882;42.522;27.458;2022-12-29T07:28:25;102514.47;;;6.77;81.15
23419;BME280;11882;42.522;27.458;2022-12-29T07:30:51;102510.28;;;7.11;80.45
23419;BME280;11882;42.522;27.458;2022-12-29T07:33:18;102518.53;;;7.07;80.15
23419;BME280;11882;42.522;27.458;2022-12-29T07:35:45;102511.75;;;7.39;79.24
23419;BME280;11882;42.522;27.458;2022-12-29T07:38:13;102513.53;;;7.63;78.51
23419;BME280;11882;42.522;27.458;2022-12-29T07:40:40;102512.28;;;7.80;77.47
23419;BME280;11882;42.522;27.458;2022-12-29T07:43:06;102508.34;;;7.96;77.68
23419;BME280;11882;42.522;27.458;2022-12-29T07:45:33;102497.09;;;8.28;76.99
23419;BME280;11882;42.522;27.458;2022-12-29T07:48:00;102501.47;;;8.73;75.80
23419;BME280;11882;42.522;27.458;2022-12-29T07:50:27;102502.69;;;8.58;76.28
23419;BME280;11882;42.522;27.458;2022-12-29T07:52:54;102499.34;;;9.54;73.61
23419;BME280;11882;42.522;27.458;2022-12-29T07:55:23;102509.50;;;9.81;72.90
23419;BME280;11882;42.522;27.458;2022-12-29T07:57:49;102505.53;;;9.75;72.38
23419;BME280;11882;42.522;27.458;2022-12-29T08:00:19;102511.13;;;9.72;72.74
23419;BME280;11882;42.522;27.458;2022-12-29T08:02:45;102505.63;;;10.06;71.93
23419;BME280;11882;42.522;27.458;2022-12-29T08:05:12;102503.16;;;9.93;72.34
23419;BME280;11882;42.522;27.458;2022-12-29T08:07:39;102502.72;;;10.29;71.50
23419;BME280;11882;42.522;27.458;2022-12-29T08:10:06;102497.59;;;10.68;70.35
23419;BME280;11882;42.522;27.458;2022-12-29T08:12:34;102508.69;;;10.22;71.55
23419;BME280;11882;42.522;27.458;2022-12-29T08:15:01;102504.84;;;10.15;71.50
23419;BME280;11882;42.522;27.458;2022-12-29T08:17:28;102508.84;;;9.88;72.91
23419;BME280;11882;42.522;27.458;2022-12-29T08:19:54;102505.69;;;10.57;71.20
23419;BME280;11882;42.522;27.458;2022-12-29T08:22:21;102510.78;;;10.70;70.86
23419;BME280;11882;42.522;27.458;2022-12-29T08:24:48;102510.13;;;10.47;70.79
23419;BME280;11882;42.522;27.458;2022-12-29T08:27:15;102511.38;;;10.11;72.80
23419;BME280;11882;42.522;27.458;2022-12-29T08:29:43;102506.06;;;9.90;73.03
23419;BME280;11882;42.522;27.458;2022-12-29T08:32:10;102508.47;;;10.34;72.80
23419;BME280;11882;42.522;27.458;2022-12-29T08:34:37;102507.22;;;10.59;71.30
23419;BME280;11882;42.522;27.458;2022-12-29T08:37:04;102514.88;;;10.83;70.33
23419;BME280;11882;42.522;27.458;2022-12-29T08:39:31;102511.66;;;10.49;71.73
23419;BME280;11882;42.522;27.458;2022-12-29T08:41:57;102513.22;;;10.52;71.14
23419;BME280;11882;42.522;27.458;2022-12-29T08:44:24;102509.34;;;10.65;71.13
23419;BME280;11882;42.522;27.458;2022-12-29T08:46:52;102507.72;;;10.44;73.02
23419;BME280;11882;42.522;27.458;2022-12-29T08:49:19;102507.72;;;10.23;72.90
23419;BME280;11882;42.522;27.458;2022-12-29T08:51:46;102505.31;;;10.41;73.37
23419;BME280;11882;42.522;27.458;2022-12-29T08:54:13;102494.97;;;10.78;73.43
23419;BME280;11882;42.522;27.458;2022-12-29T08:56:39;102495.34;;;11.13;71.42
23419;BME280;11882;42.522;27.458;2022-12-29T08:59:06;102491.84;;;11.13;70.33
23419;BME280;11882;42.522;27.458;2022-12-29T09:01:33;102485.09;;;10.59;72.53
23419;BME280;11882;42.522;27.458;2022-12-29T09:04:03;102483.25;;;10.29;74.04
23419;BME280;11882;42.522;27.458;2022-12-29T09:06:29;102478.94;;;10.38;73.96
23419;BME280;11882;42.522;27.458;2022-12-29T09:08:56;102478.31;;;10.45;73.94
23419;BME280;11882;42.522;27.458;2022-12-29T09:11:23;102479.94;;;11.26;70.79
23419;BME280;11882;42.522;27.458;2022-12-29T09:13:50;102475.25;;;11.00;71.76
23419;BME280;11882;42.522;27.458;2022-12-29T09:16:17;102471.09;;;11.16;71.08
23419;BME280;11882;42.522;27.458;2022-12-29T09:18:44;102470.13;;;10.37;73.76
23419;BME280;11882;42.522;27.458;2022-12-29T09:21:13;102465.41;;;10.81;73.06
23419;BME280;11882;42.522;27.458;2022-12-29T09:23:39;102465.75;;;11.26;72.56
23419;BME280;11882;42.522;27.458;2022-12-29T09:26:07;102470.38;;;11.14;72.67
23419;BME280;11882;42.522;27.458;2022-12-29T09:28:34;102459.97;;;11.02;72.45
23419;BME280;11882;42.522;27.458;2022-12-29T09:31:02;102457.78;;;11.26;72.51
23419;BME280;11882;42.522;27.458;2022-12-29T09:33:28;102455.34;;;11.04;72.57
23419;BME280;11882;42.522;27.458;2022-12-29T09:35:57;102459.47;;;11.37;71.36
23419;BME280;11882;42.522;27.458;2022-12-29T09:38:26;102457.75;;;11.16;71.15
23419;BME280;11882;42.522;27.458;2022-12-29T09:40:54;102451.25;;;10.80;73.19
23419;BME280;11882;42.522;27.458;2022-12-29T09:43:42;102444.81;;;10.83;72.20
23419;BME280;11882;42.522;27.458;2022-12-29T09:46:13;102446.75;;;10.81;73.59
23419;BME280;11882;42.522;27.458;2022-12-29T09:48:46;102443.44;;;10.98;72.80
23419;BME280;11882;42.522;27.458;2022-12-29T09:51:15;102438.00;;;11.19;72.40
23419;BME280;11882;42.522;27.458;2022-12-29T09:53:44;102429.56;;;11.43;72.02
23419;BME280;11882;42.522;27.458;2022-12-29T09:56:16;102428.16;;;11.77;70.41
23419;BME280;11882;42.522;27.458;2022-12-29T09:58:44;102431.13;;;11.45;71.02
23419;BME280;11882;42.522;27.458;2022-12-29T10:01:17;102424.78;;;11.75;70.05
23419;BME280;11882;42.522;27.458;2022-12-29T10:03:49;102422.13;;;11.56;71.17
23419;BME280;11882;42.522;27.458;2022-12-29T10:06:17;102413.75;;;12.07;70.43
23419;BME280;11882;42.522;27.458;2022-12-29T10:08:49;102417.59;;;11.76;70.52
23419;BME280;11882;42.522;27.458;2022-12-29T10:11:22;102411.63;;;12.48;68.55
23419;BME280;11882;42.522;27.458;2022-12-29T10:13:56;102409.16;;;12.00;69.35
23419;BME280;11882;42.522;27.458;2022-12-29T10:16:29;102407.00;;;12.13;69.56
23419;BME280;11882;42.522;27.458;2022-12-29T10:19:06;102403.66;;;12.38;68.96
23419;BME280;11882;42.522;27.458;2022-12-29T10:21:42;102408.03;;;12.02;70.08
23419;BME280;11882;42.522;27.458;2022-12-29T10:24:15;102398.81;;;11.77;71.02
23419;BME280;11882;42.522;27.458;2022-12-29T10:26:43;102393.25;;;12.08;70.54
23419;BME280;11882;42.522;27.458;2022-12-29T10:29:13;102384.31;;;11.99;69.97
23419;BME280;11882;42.522;27.458;2022-12-29T10:31:43;102384.00;;;12.39;69.65
23419;BME280;11882;42.522;27.458;2022-12-29T10:34:12;102378.56;;;12.31;69.79
23419;BME280;11882;42.522;27.458;2022-12-29T10:36:41;102372.59;;;12.10;70.51
23419;BME280;11882;42.522;27.458;2022-12-29T10:39:13;102372.22;;;12.32;69.91
23419;BME280;11882;42.522;27.458;2022-12-29T10:41:44;102374.69;;;12.88;68.12
23419;BME280;11882;42.522;27.458;2022-12-29T10:44:13;102364.78;;;12.53;68.70
23419;BME280;11882;42.522;27.458;2022-12-29T10:46:41;102366.19;;;12.03;70.72
23419;BME280;11882;42.522;27.458;2022-12-29T10:49:10;102358.69;;;12.61;69.27
23419;BME280;11882;42.522;27.458;2022-12-29T10:51:41;102353.47;;;13.05;68.66
23419;BME280;11882;42.522;27.458;2022-12-29T10:54:10;102352.09;;;13.01;68.51
23419;BME280;11882;42.522;27.458;2022-12-29T10:56:40;102346.06;;;13.16;67.83
23419;BME280;11882;42.522;27.458;2022-12-29T10:59:13;102351.47;;;13.07;68.28
23419;BME280;11882;42.522;27.458;2022-12-29T11:01:45;102350.38;;;12.64;69.14
23419;BME280;11882;42.522;27.458;2022-12-29T11:04:20;102347.13;;;13.23;67.73
23419;BME280;11882;42.522;27.458;2022-12-29T11:06:52;102349.47;;;12.55;69.93
23419;BME280;11882;42.522;27.458;2022-12-29T11:09:20;102344.16;;;13.27;67.84
23419;BME280;11882;42.522;27.458;2022-12-29T11:11:49;102336.81;;;13.29;67.48
23419;BME280;11882;42.522;27.458;2022-12-29T11:14:19;102324.59;;;13.08;68.00
23419;BME280;11882;42.522;27.458;2022-12-29T11:16:53;102331.69;;;12.82;68.59
23419;BME280;11882;42.522;27.458;2022-12-29T11:19:23;102329.09;;;12.90;68.55
23419;BME280;11882;42.522;27.458;2022-12-29T11:21:50;102329.25;;;12.71;69.28
23419;BME280;11882;42.522;27.458;2022-12-29T11:24:18;102321.59;;;13.11;68.36
23419;BME280;11882;42.522;27.458;2022-12-29T11:26:46;102313.19;;;13.42;66.92
23419;BME280;11882;42.522;27.458;2022-12-29T11:29:17;102320.25;;;12.72;68.90
23419;BME280;11882;42.522;27.458;2022-12-29T11:31:48;102315.69;;;12.82;68.23
23419;BME280;11882;42.522;27.458;2022-12-29T11:34:18;102314.22;;;12.87;67.89
23419;BME280;11882;42.522;27.458;2022-12-29T11:36:46;102304.97;;;13.00;68.33
23419;BME280;11882;42.522;27.458;2022-12-29T11:39:29;102317.28;;;12.93;68.19
23419;BME280;11882;42.522;27.458;2022-12-29T11:41:57;102315.81;;;12.98;68.59
23419;BME280;11882;42.522;27.458;2022-12-29T11:44:24;102306.25;;;13.57;66.57
23419;BME280;11882;42.522;27.458;2022-12-29T11:46:53;102307.78;;;13.34;66.33
23419;BME280;11882;42.522;27.458;2022-12-29T11:49:21;102300.16;;;13.03;67.76
23419;BME280;11882;42.522;27.458;2022-12-29T11:51:49;102300.38;;;13.28;67.08
23419;BME280;11882;42.522;27.458;2022-12-29T11:54:17;102295.56;;;13.31;66.59
23419;BME280;11882;42.522;27.458;2022-12-29T11:56:45;102289.53;;;13.11;67.13
23419;BME280;11882;42.522;27.458;2022-12-29T11:59:24;102287.16;;;13.52;66.07
23419;BME280;11882;42.522;27.458;2022-12-29T12:02:08;102288.38;;;13.58;66.16
23419;BME280;11882;42.522;27.458;2022-12-29T12:04:37;102287.81;;;13.80;64.88
23419;BME280;11882;42.522;27.458;2022-12-29T12:07:07;102287.31;;;13.25;66.36
23419;BME280;11882;42.522;27.458;2022-12-29T12:09:38;102291.31;;;13.03;67.31
23419;BME280;11882;42.522;27.458;2022-12-29T12:12:12;102291.06;;;13.14;66.86
23419;BME280;11882;42.522;27.458;2022-12-29T12:14:46;102281.19;;;13.14;67.43
23419;BME280;11882;42.522;27.458;2022-12-29T12:17:21;102283.81;;;13.24;67.17
23419;BME280;11882;42.522;27.458;2022-12-29T12:19:51;102278.09;;;13.01;68.01
23419;BME280;11882;42.522;27.458;2022-12-29T12:22:25;102287.63;;;13.04;68.15
23419;BME280;11882;42.522;27.458;2022-12-29T12:24:54;102283.06;;;13.66;65.92
23419;BME280;11882;42.522;27.458;2022-12-29T12:27:24;102283.19;;;13.12;67.45
23419;BME280;11882;42.522;27.458;2022-12-29T12:29:55;102279.00;;;13.28;67.55
23419;BME280;11882;42.522;27.458;2022-12-29T12:32:27;102279.72;;;13.38;67.04
23419;BME280;11882;42.522;27.458;2022-12-29T12:34:57;102279.34;;;13.59;67.14
23419;BME280;11882;42.522;27.458;2022-12-29T12:37:40;102281.97;;;13.84;65.36
23419;BME280;11882;42.522;27.458;2022-12-29T12:43:00;102281.19;;;13.58;66.49
23419;BME280;11882;42.522;27.458;2022-12-29T12:45:37;102289.00;;;13.08;67.79
23419;BME280;11882;42.522;27.458;2022-12-29T12:48:15;102281.03;;;13.16;68.25
23419;BME280;11882;42.522;27.458;2022-12-29T12:50:47;102281.19;;;13.58;66.43
23419;BME280;11882;42.522;27.458;2022-12-29T12:53:34;102285.66;;;13.06;67.52
23419;BME280;11882;42.522;27.458;2022-12-29T12:56:14;102282.84;;;13.59;66.46
23419;BME280;11882;42.522;27.458;2022-12-29T12:58:43;102280.41;;;13.40;66.45
23419;BME280;11882;42.522;27.458;2022-12-29T13:01:18;102280.97;;;13.26;67.15
23419;BME280;11882;42.522;27.458;2022-12-29T13:03:59;102284.13;;;13.47;66.52
23419;BME280;11882;42.522;27.458;2022-12-29T13:06:32;102287.75;;;13.38;66.73
23419;BME280;11882;42.522;27.458;2022-12-29T13:11:49;102278.63;;;13.05;68.64
23419;BME280;11882;42.522;27.458;2022-12-29T13:14:23;102284.00;;;13.91;65.78